Startpagina
METAR-TAF:

METAR-TAF

Vliegvelden :

Vlieland Heliport

Vlieland, Nederland

breedte: 53-15N, lengte: 004-55E, hoogte: 11 m

Actueel weer

Dit bericht is 15 minuten geleden gemaakt, om 10:25 UTC
Wind 26 kt uit het zuidwesten
Temperatuur 8°C
Vochtigheid 93%
Druk 1004 hPa
Zicht: 7000 m
Weinig wolken op 700 ft
Gebroken wolken op 800 ft
Geheel bewolkt op 1000 ft
nevel

METAR: EHVL 161025Z AUTO 23026KT 7000 BR FEW007 BKN008 OVC010 08/07 Q1004 GRN

Tijdstip: 11:40 (10:40 UTC)


TAF: ontbreekt

Waarnemingen en weersverwachtingen van meer dan 4000 vliegvelden (METAR en TAF).

De beschikbare stations zijn de gele en rode punten op de kaart.

Ga met uw muis naar het station om de naam te zien.

Klik dan om waarnemingen en weersverwachtingen te zien.

kaart wijzigen: klik op de groene knoppen met een zwart kruis om in te zoomen, op de groene knop met een streepje om uit te zoomen of op de groene pijlen voor aangrenzende kaarten.


METAR-TAF: